Ocean Sapphire — VRKL8 — position and weather

sailwx.info

Track history (hours):
 
Tides and Currents Weather Stations Pressure Air Temp Water Temp Dewpoint Dewpoint Depression Visibility Wind Speed Wind Dir Waves Ship Positions

Ocean Sapphire

Last reported at 2017-Aug-21 11:30 UTC. Time now 2017-Aug-21 11:53 UTC.
Position N 22°41' E 120°00'.

Length 229 m; draft 14.6 m.

Type: Cargo ship. MMSI: 477065400.

Date/timePositionNaut miles runAvg speedWind from/ knotsBaromVisibWave heightAir tempDewpointWater temp
2017-Aug-21 11:30N 22°41' E 120°00'0 0.2
2017-Aug-21 11:00N 22°41' E 120°00'0 0.3
2017-Aug-21 10:25N 22°41' E 120°00'0 0.3
2017-Aug-21 09:17N 22°41' E 120°00'0 0.5
2017-Aug-21 09:00N 22°41' E 120°00'0 0.7
2017-Aug-21 08:30N 22°42' E 119°60'0 0.5
2017-Aug-21 08:00N 22°42' E 119°60'0 0.3
2017-Aug-21 07:30N 22°42' E 119°60'2 3.7
2017-Aug-21 07:00N 22°41' E 120°01'5 9.0
2017-Aug-21 06:30N 22°38' E 120°05'5 9.5
2017-Aug-21 06:00N 22°38' E 120°10'3 5.4
2017-Aug-21 05:30N 22°39' E 120°13'0 0.5
2017-Aug-21 04:59N 22°38' E 120°13'0 0.0
2017-Aug-21 04:28N 22°38' E 120°13'0 0.0
2017-Aug-21 03:59N 22°38' E 120°13'0 0.0
2017-Aug-21 03:29N 22°38' E 120°13'0 0.0
2017-Aug-21 02:59N 22°38' E 120°13'0 0.0
2017-Aug-21 02:29N 22°38' E 120°13'0 0.0
2017-Aug-21 01:58N 22°38' E 120°13'0 0.0
2017-Aug-21 01:26N 22°38' E 120°13'0 0.1
2017-Aug-21 00:59N 22°38' E 120°13'0 0.0
2017-Aug-21 00:28N 22°38' E 120°13'0 0.1
2017-Aug-20 23:59N 22°38' E 120°13'0 0.0
2017-Aug-20 23:25N 22°38' E 120°13'0 0.0
2017-Aug-20 22:59N 22°38' E 120°13'0 0.0
2017-Aug-20 22:29N 22°38' E 120°13'0 0.1
2017-Aug-20 21:59N 22°38' E 120°13'0 0.0
2017-Aug-20 21:29N 22°38' E 120°13'0 0.0
2017-Aug-20 20:59N 22°38' E 120°13'0 0.0
2017-Aug-20 20:26N 22°38' E 120°13'0 0.0
2017-Aug-20 19:58N 22°38' E 120°13'0 0.0
2017-Aug-20 19:29N 22°38' E 120°13'0 0.1
2017-Aug-20 18:58N 22°38' E 120°13'0 0.1
2017-Aug-20 18:28N 22°38' E 120°13'0 0.0
2017-Aug-20 17:55N 22°38' E 120°13'0 0.0
2017-Aug-20 17:28N 22°38' E 120°13'0 0.2
2017-Aug-20 16:58N 22°39' E 120°13'0 0.2
2017-Aug-20 16:23N 22°39' E 120°13'0 0.1
2017-Aug-20 15:58N 22°39' E 120°13'0 0.0
2017-Aug-20 15:28N 22°39' E 120°13'0 0.0
2017-Aug-20 14:58N 22°39' E 120°13'0 0.1
2017-Aug-20 14:25N 22°39' E 120°13'0 0.0
2017-Aug-20 13:58N 22°39' E 120°13'0 0.1
2017-Aug-20 13:28N 22°39' E 120°13'0 0.0
2017-Aug-20 12:58N 22°39' E 120°13'0 0.0
2017-Aug-20 12:28N 22°39' E 120°13'0 0.1
2017-Aug-20 11:58N 22°39' E 120°13'0 0.2
2017-Aug-20 11:25N 22°38' E 120°13'0 0.3
2017-Aug-20 10:58N 22°39' E 120°13'0 0.7
2017-Aug-20 10:30N 22°39' E 120°13'1 3.0
2017-Aug-20 10:00N 22°37' E 120°13'2 3.9
2017-Aug-20 09:30N 22°37' E 120°11'510.6
2017-Aug-20 09:00N 22°34' E 120°07'611.5
2017-Aug-20 08:30N 22°30' E 120°02'2 4.8
2017-Aug-20 08:00N 22°28' E 119°60'4 7.3
2017-Aug-20 07:30N 22°25' E 119°58'  
Track history (hours):
 
Tides and Currents Weather Stations Pressure Air Temp Water Temp Dewpoint Dewpoint Depression Visibility Wind Speed Wind Dir Waves Ship Positions

Ocean Sapphire

Last reported at 2017-Aug-21 11:30 UTC. Time now 2017-Aug-21 11:53 UTC.
Position N 22°41' E 120°00'.

Length 229 m; draft 14.6 m.

Type: Cargo ship. MMSI: 477065400.

Date/timePositionNaut miles runAvg speedWind from/ knotsBaromVisibWave heightAir tempDewpointWater temp
2017-Aug-21 11:30N 22°41' E 120°00'0 0.2
2017-Aug-21 11:00N 22°41' E 120°00'0 0.3
2017-Aug-21 10:25N 22°41' E 120°00'0 0.3
2017-Aug-21 09:17N 22°41' E 120°00'0 0.5
2017-Aug-21 09:00N 22°41' E 120°00'0 0.7
2017-Aug-21 08:30N 22°42' E 119°60'0 0.5
2017-Aug-21 08:00N 22°42' E 119°60'0 0.3
2017-Aug-21 07:30N 22°42' E 119°60'2 3.7
2017-Aug-21 07:00N 22°41' E 120°01'5 9.0
2017-Aug-21 06:30N 22°38' E 120°05'5 9.5
2017-Aug-21 06:00N 22°38' E 120°10'3 5.4
2017-Aug-21 05:30N 22°39' E 120°13'0 0.5
2017-Aug-21 04:59N 22°38' E 120°13'0 0.0
2017-Aug-21 04:28N 22°38' E 120°13'0 0.0
2017-Aug-21 03:59N 22°38' E 120°13'0 0.0
2017-Aug-21 03:29N 22°38' E 120°13'0 0.0
2017-Aug-21 02:59N 22°38' E 120°13'0 0.0
2017-Aug-21 02:29N 22°38' E 120°13'0 0.0
2017-Aug-21 01:58N 22°38' E 120°13'0 0.0
2017-Aug-21 01:26N 22°38' E 120°13'0 0.1
2017-Aug-21 00:59N 22°38' E 120°13'0 0.0
2017-Aug-21 00:28N 22°38' E 120°13'0 0.1
2017-Aug-20 23:59N 22°38' E 120°13'0 0.0
2017-Aug-20 23:25N 22°38' E 120°13'0 0.0
2017-Aug-20 22:59N 22°38' E 120°13'0 0.0
2017-Aug-20 22:29N 22°38' E 120°13'0 0.1
2017-Aug-20 21:59N 22°38' E 120°13'0 0.0
2017-Aug-20 21:29N 22°38' E 120°13'0 0.0
2017-Aug-20 20:59N 22°38' E 120°13'0 0.0
2017-Aug-20 20:26N 22°38' E 120°13'0 0.0
2017-Aug-20 19:58N 22°38' E 120°13'0 0.0
2017-Aug-20 19:29N 22°38' E 120°13'0 0.1
2017-Aug-20 18:58N 22°38' E 120°13'0 0.1
2017-Aug-20 18:28N 22°38' E 120°13'0 0.0
2017-Aug-20 17:55N 22°38' E 120°13'0 0.0
2017-Aug-20 17:28N 22°38' E 120°13'0 0.2
2017-Aug-20 16:58N 22°39' E 120°13'0 0.2
2017-Aug-20 16:23N 22°39' E 120°13'0 0.1
2017-Aug-20 15:58N 22°39' E 120°13'0 0.0
2017-Aug-20 15:28N 22°39' E 120°13'0 0.0
2017-Aug-20 14:58N 22°39' E 120°13'0 0.1
2017-Aug-20 14:25N 22°39' E 120°13'0 0.0
2017-Aug-20 13:58N 22°39' E 120°13'0 0.1
2017-Aug-20 13:28N 22°39' E 120°13'0 0.0
2017-Aug-20 12:58N 22°39' E 120°13'0 0.0
2017-Aug-20 12:28N 22°39' E 120°13'0 0.1
2017-Aug-20 11:58N 22°39' E 120°13'0 0.2
2017-Aug-20 11:25N 22°38' E 120°13'0 0.3
2017-Aug-20 10:58N 22°39' E 120°13'0 0.7
2017-Aug-20 10:30N 22°39' E 120°13'1 3.0
2017-Aug-20 10:00N 22°37' E 120°13'2 3.9
2017-Aug-20 09:30N 22°37' E 120°11'510.6
2017-Aug-20 09:00N 22°34' E 120°07'611.5
2017-Aug-20 08:30N 22°30' E 120°02'2 4.8
2017-Aug-20 08:00N 22°28' E 119°60'4 7.3
2017-Aug-20 07:30N 22°25' E 119°58'  

Dump ship's entire track history